Time;durP1;ratioP1;P1;durP2;ratioP2;P2;SDS_P1;SDS_P2;PMS_P1;PMS_P2;Temp;Humidity;BMP_temperature;BMP_pressure;BME280_temperature;BME280_humidity;BME280_pressure;Samples;Min_cycle;Max_cycle;Signal;HPM_P1;HPM_P2
2023/06/13 04:38:04;;;;;;;4.50;3.55;;;12.70;49.20;;;;;;6279467;22;20192;-87
2023/06/13 04:40:33;;;;;;;4.00;3.10;;;12.80;49.30;;;;;;5017631;28;20214;-88
2023/06/13 04:49:22;;;;;;;5.07;2.60;;;13.10;44.50;;;;;;5020388;28;20206;-88
2023/06/13 04:52:23;;;;;;;4.75;2.90;;;13.10;42.40;;;;;;5037627;28;20191;-86
2023/06/13 04:54:52;;;;;;;8.88;2.92;;;13.20;42.70;;;;;;5017686;28;20210;-84
2023/06/13 05:01:26;;;;;;;5.85;2.90;;;13.30;43.50;;;;;;5016541;28;20229;-86
2023/06/13 05:03:57;;;;;;;4.28;2.85;;;13.50;39.60;;;;;;5009315;28;20245;-85
2023/06/13 05:06:24;;;;;;;5.53;2.80;;;13.60;39.50;;;;;;5020297;28;20585;-88
2023/06/13 05:08:52;;;;;;;6.55;2.83;;;13.70;37.10;;;;;;5020210;28;20201;-86
2023/06/13 05:15:16;;;;;;;7.90;3.00;;;14.00;33.00;;;;;;5036379;28;20261;-86
2023/06/13 05:44:00;;;;;;;6.43;2.70;;;15.90;22.60;;;;;;5018674;28;20176;-89
2023/06/13 05:46:29;;;;;;;2.85;2.65;;;16.30;22.60;;;;;;5019919;28;20197;-90
2023/06/13 05:52:06;;;;;;;4.35;2.85;;;17.60;18.70;;;;;;5015142;28;20198;-89
2023/06/13 05:57:15;;;;;;;5.40;2.65;;;17.50;17.60;;;;;;4991110;28;20224;-87
2023/06/13 05:59:41;;;;;;;5.55;2.60;;;17.30;18.30;;;;;;5018548;28;20195;-89
2023/06/13 06:02:12;;;;;;;8.98;2.92;;;17.00;18.40;;;;;;5016618;28;20207;-88
2023/06/13 06:04:40;;;;;;;2.65;2.45;;;16.80;18.70;;;;;;5018240;28;20211;-86
2023/06/13 06:07:07;;;;;;;5.63;2.75;;;16.70;18.00;;;;;;4989580;28;20203;-89
2023/06/13 06:09:33;;;;;;;6.05;3.08;;;16.40;18.10;;;;;;5015627;28;20203;-84
2023/06/13 06:12:00;;;;;;;5.85;2.80;;;16.30;19.30;;;;;;5015631;28;20194;-84
2023/06/13 06:14:27;;;;;;;5.40;2.90;;;16.10;20.00;;;;;;5015081;28;20200;-88
2023/06/13 06:16:55;;;;;;;4.50;2.80;;;16.20;19.40;;;;;;4993145;28;20203;-84
2023/06/13 06:19:23;;;;;;;4.13;2.50;;;16.20;19.20;;;;;;5010535;28;20470;-89
2023/06/13 06:21:50;;;;;;;4.93;2.50;;;16.20;18.50;;;;;;4995062;28;20202;-90
2023/06/13 06:24:17;;;;;;;4.47;2.47;;;16.20;18.00;;;;;;4996562;28;20677;-90
2023/06/13 06:26:44;;;;;;;3.67;2.55;;;16.20;19.00;;;;;;4979931;28;20196;-89
2023/06/13 06:29:11;;;;;;;6.32;2.60;;;16.20;18.10;;;;;;4980945;28;20669;-90
2023/06/13 06:31:38;;;;;;;6.13;2.80;;;16.30;18.30;;;;;;4998986;28;20221;-90
2023/06/13 06:34:05;;;;;;;3.38;3.00;;;16.40;19.60;;;;;;4992694;28;20199;-93
2023/06/13 06:36:36;;;;;;;3.95;2.40;;;16.50;18.00;;;;;;5003267;28;20212;-86
2023/06/13 06:39:07;;;;;;;2.80;2.60;;;16.40;17.50;;;;;;4984922;28;20254;-89
2023/06/13 06:41:54;;;;;;;3.92;2.30;;;16.40;17.80;;;;;;4985387;28;20211;-87
2023/06/13 06:44:21;;;;;;;8.43;2.83;;;16.50;18.80;;;;;;4994917;28;20231;-89
2023/06/13 06:46:48;;;;;;;6.70;2.70;;;16.50;18.70;;;;;;4994966;28;20210;-91
2023/06/13 07:06:12;;;;;;;11.32;2.50;;;16.90;17.50;;;;;;4946688;28;20309;-87
2023/06/13 07:08:39;;;;;;;6.15;2.40;;;17.00;18.30;;;;;;4933046;28;20675;-86
2023/06/13 07:11:06;;;;;;;4.88;2.33;;;18.00;15.80;;;;;;4961028;28;20196;-90
2023/06/13 07:19:58;;;;;;;4.75;2.60;;;20.40;11.20;;;;;;4979735;28;20202;-89
2023/06/13 07:22:25;;;;;;;7.88;2.35;;;20.10;12.00;;;;;;4978208;28;20211;-88
2023/06/13 07:24:54;;;;;;;4.60;2.38;;;19.50;14.10;;;;;;4980198;28;20195;-89
2023/06/13 07:27:24;;;;;;;4.78;2.45;;;19.20;13.50;;;;;;4997955;28;20200;-91
2023/06/13 07:40:08;;;;;;;6.93;2.53;;;18.20;15.50;;;;;;4996093;28;20212;-91
2023/06/13 07:48:21;;;;;;;2.83;2.50;;;18.10;16.10;;;;;;4977175;28;20223;-90
2023/06/13 07:57:00;;;;;;;6.38;2.65;;;18.10;17.10;;;;;;4964427;28;20210;-85
2023/06/13 07:59:27;;;;;;;5.97;2.70;;;18.40;15.10;;;;;;4992438;28;20227;-90
2023/06/13 08:01:54;;;;;;;7.75;2.78;;;18.50;15.20;;;;;;4979629;28;20196;-88
2023/06/13 08:04:21;;;;;;;5.13;2.55;;;18.60;16.30;;;;;;4996776;28;20200;-92
2023/06/13 08:06:50;;;;;;;3.42;2.60;;;18.80;15.30;;;;;;5000635;28;20246;-85
2023/06/13 08:09:18;;;;;;;3.13;2.40;;;19.10;15.80;;;;;;4979985;28;20202;-87
2023/06/13 08:11:45;;;;;;;4.85;2.70;;;19.40;15.00;;;;;;4971741;28;20661;-87
2023/06/13 08:14:13;;;;;;;5.53;2.78;;;19.60;13.80;;;;;;4987921;28;20204;-88
2023/06/13 08:16:40;;;;;;;6.10;2.85;;;19.90;12.90;;;;;;4979829;28;20204;-87
2023/06/13 08:19:07;;;;;;;3.92;2.47;;;20.60;11.30;;;;;;5003179;28;20223;-87
2023/06/13 08:21:34;;;;;;;3.55;2.72;;;22.20;10.40;;;;;;4995636;28;20192;-89
2023/06/13 08:24:01;;;;;;;3.45;2.72;;;23.80;9.10;;;;;;4987862;28;21808;-83
2023/06/13 08:26:32;;;;;;;3.05;2.60;;;25.50;6.00;;;;;;4994370;28;20191;-87
2023/06/13 08:28:59;;;;;;;3.38;2.72;;;26.50;4.60;;;;;;4999933;28;20203;-84
2023/06/13 08:31:26;;;;;;;5.60;3.22;;;27.10;3.70;;;;;;4995440;28;20196;-85
2023/06/13 08:33:53;;;;;;;7.22;2.90;;;27.70;3.30;;;;;;4998996;28;20211;-86
2023/06/13 08:36:20;;;;;;;6.88;2.95;;;27.60;2.70;;;;;;4985686;28;20211;-86
2023/06/13 08:38:47;;;;;;;7.97;2.90;;;27.60;2.00;;;;;;4995640;28;20314;-86
2023/06/13 08:41:15;;;;;;;8.98;3.05;;;27.60;2.40;;;;;;4997599;28;20535;-88
2023/06/13 08:43:43;;;;;;;7.40;3.40;;;28.60;1.00;;;;;;4997897;28;20206;-85
2023/06/13 08:46:11;;;;;;;8.18;3.05;;;29.00;1.00;;;;;;4996495;28;20207;-84
2023/06/13 08:48:38;;;;;;;5.25;3.13;;;28.60;1.00;;;;;;4994527;28;20207;-86
2023/06/13 08:51:07;;;;;;;10.52;3.38;;;28.50;1.00;;;;;;4996120;28;20202;-87
2023/06/13 08:53:34;;;;;;;9.52;3.70;;;29.20;1.00;;;;;;4996263;28;20223;-87
2023/06/13 08:56:07;;;;;;;7.95;3.40;;;28.50;1.00;;;;;;4995660;28;20208;-86
2023/06/13 08:58:36;;;;;;;5.03;3.20;;;29.00;1.00;;;;;;4997730;28;20238;-89
2023/06/13 09:01:06;;;;;;;5.63;3.38;;;29.00;1.00;;;;;;4996118;28;20288;-85
2023/06/13 09:03:34;;;;;;;5.45;3.42;;;28.20;1.00;;;;;;4980543;28;20211;-89
2023/06/13 09:06:04;;;;;;;5.15;3.17;;;27.90;1.30;;;;;;4997750;28;20196;-88
2023/06/13 09:08:32;;;;;;;3.47;3.17;;;27.80;1.00;;;;;;4977760;28;20203;-88
2023/06/13 09:11:00;;;;;;;6.95;3.40;;;28.20;1.00;;;;;;4977535;28;20211;-88
2023/06/13 09:13:28;;;;;;;3.63;3.08;;;29.20;1.00;;;;;;4991568;28;20195;-90
2023/06/13 09:15:56;;;;;;;4.43;3.20;;;29.00;1.00;;;;;;4973304;28;20196;-85
2023/06/13 09:18:36;;;;;;;5.80;3.53;;;28.10;1.00;;;;;;4994845;28;20219;-88
2023/06/13 09:21:36;;;;;;;5.20;3.30;;;28.10;1.40;;;;;;4942472;29;20339;-92
2023/06/13 09:24:09;;;;;;;7.45;3.65;;;27.80;1.00;;;;;;4926061;29;20647;-90
2023/06/13 09:26:36;;;;;;;4.75;3.10;;;29.20;1.00;;;;;;4973922;28;20242;-92
2023/06/13 09:29:07;;;;;;;5.32;3.20;;;29.50;1.00;;;;;;4982721;28;20656;-90
2023/06/13 09:31:38;;;;;;;3.75;3.20;;;30.00;1.00;;;;;;5001067;28;20229;-89
2023/06/13 09:34:45;;;;;;;6.00;3.40;;;29.50;1.00;;;;;;4999181;28;20207;-88
2023/06/13 09:37:13;;;;;;;3.47;3.17;;;29.10;1.00;;;;;;4998005;28;20202;-88
2023/06/13 09:40:09;;;;;;;3.70;3.40;;;29.20;1.00;;;;;;4977259;28;20219;-87
2023/06/13 09:46:23;;;;;;;4.22;3.40;;;30.40;1.00;;;;;;4999210;28;20524;-88
2023/06/13 09:48:51;;;;;;;8.90;3.25;;;30.00;1.00;;;;;;4980515;28;20226;-89
2023/06/13 09:51:18;;;;;;;3.83;3.42;;;29.60;1.00;;;;;;4999454;28;20192;-87
2023/06/13 10:00:48;;;;;;;5.63;3.50;;;30.10;1.00;;;;;;4998516;28;20200;-88
2023/06/13 10:03:16;;;;;;;4.57;3.35;;;29.90;1.00;;;;;;4996789;28;20656;-90
2023/06/13 10:05:43;;;;;;;5.22;3.40;;;29.00;1.00;;;;;;4998097;28;20269;-84
2023/06/13 10:08:11;;;;;;;6.00;3.65;;;28.50;1.00;;;;;;5001976;28;20210;-86
2023/06/13 10:10:38;;;;;;;5.10;3.40;;;28.00;1.00;;;;;;5017787;28;20202;-85
2023/06/13 10:13:11;;;;;;;5.00;3.60;;;28.20;1.00;;;;;;5017442;28;20206;-84
2023/06/13 10:15:40;;;;;;;5.13;3.67;;;28.30;1.00;;;;;;5018018;28;20190;-86
2023/06/13 10:18:14;;;;;;;7.03;3.60;;;28.10;1.00;;;;;;5018042;28;20292;-85
2023/06/13 10:20:45;;;;;;;5.03;3.70;;;28.20;1.00;;;;;;4987083;28;20198;-91
2023/06/13 10:23:16;;;;;;;4.68;3.58;;;28.40;1.00;;;;;;4995610;28;20199;-87
2023/06/13 10:25:45;;;;;;;3.97;3.10;;;28.70;1.00;;;;;;4996517;28;20208;-90
2023/06/13 10:28:21;;;;;;;5.50;5.03;;;28.70;1.00;;;;;;4973872;28;20200;-88
2023/06/13 10:31:01;;;;;;;5.60;3.40;;;28.80;1.00;;;;;;4994424;28;20223;-89
2023/06/13 10:34:19;;;;;;;3.97;3.15;;;29.10;1.00;;;;;;4981985;28;20214;-93
2023/06/13 10:37:13;;;;;;;4.95;3.08;;;28.70;1.00;;;;;;4979935;28;20207;-87
2023/06/13 10:39:56;;;;;;;5.35;3.15;;;28.60;1.00;;;;;;4991287;28;20560;-88
2023/06/13 10:42:29;;;;;;;4.70;3.70;;;27.70;1.00;;;;;;4985266;28;20207;-89
2023/06/13 10:45:02;;;;;;;7.43;3.50;;;28.10;1.00;;;;;;4977402;28;20642;-87
2023/06/13 10:47:30;;;;;;;3.85;3.13;;;28.20;1.00;;;;;;4985176;28;20267;-88
2023/06/13 10:52:48;;;;;;;4.43;3.47;;;28.20;1.00;;;;;;4991206;28;20680;-87
2023/06/13 10:55:24;;;;;;;6.55;3.22;;;28.00;1.00;;;;;;4990114;28;20245;-85
2023/06/13 10:57:52;;;;;;;6.60;3.10;;;28.00;1.00;;;;;;4981056;28;20203;-86
2023/06/13 11:00:28;;;;;;;4.38;3.20;;;27.50;1.00;;;;;;4992679;28;20262;-86
2023/06/13 11:03:00;;;;;;;7.03;3.55;;;27.70;1.00;;;;;;4967339;28;20652;-82
2023/06/13 11:05:29;;;;;;;5.00;3.00;;;27.20;1.00;;;;;;4989706;28;20290;-86
2023/06/13 11:07:56;;;;;;;8.02;3.00;;;26.60;1.00;;;;;;5002060;28;20616;-86
2023/06/13 11:10:25;;;;;;;4.95;3.20;;;25.90;1.00;;;;;;4998393;28;20227;-87
2023/06/13 11:12:53;;;;;;;6.93;3.47;;;25.30;4.00;;;;;;4967757;28;20277;-86
2023/06/13 11:15:25;;;;;;;7.03;3.25;;;25.40;1.10;;;;;;4992699;28;20206;-85
2023/06/13 11:18:34;;;;;;;5.82;2.83;;;25.30;1.00;;;;;;4992120;28;20230;-85
2023/06/13 11:21:03;;;;;;;3.50;2.80;;;25.10;3.10;;;;;;4992742;28;20656;-83
2023/06/13 11:23:48;;;;;;;5.45;3.00;;;25.00;1.40;;;;;;4993477;28;20196;-85
2023/06/13 11:26:20;;;;;;;4.95;2.97;;;24.80;1.80;;;;;;4988267;28;20211;-84
2023/06/13 11:28:48;;;;;;;7.35;3.03;;;24.60;1.00;;;;;;5011497;28;20199;-88
2023/06/13 11:31:17;;;;;;;5.03;3.17;;;24.60;1.00;;;;;;5019826;28;20269;-86
2023/06/13 11:33:47;;;;;;;6.32;5.70;;;24.40;1.00;;;;;;5003503;28;20204;-86
2023/06/13 11:36:15;;;;;;;6.47;2.95;;;24.50;5.70;;;;;;4996520;28;20196;-83
2023/06/13 11:38:45;;;;;;;5.38;3.45;;;24.40;3.30;;;;;;4977623;28;20255;-85
2023/06/13 11:41:15;;;;;;;6.13;3.10;;;24.10;5.90;;;;;;4986212;28;20203;-89
2023/06/13 11:43:55;;;;;;;;;;;;;;;;;;;;;
2023/06/13 11:57:15;;;;;;;5.85;3.00;;;24.10;1.50;;;;;;5019548;28;20184;-89
2023/06/13 12:03:06;;;;;;;4.75;3.20;;;23.70;2.40;;;;;;5001387;28;20229;-83
2023/06/13 12:05:33;;;;;;;3.50;2.90;;;23.60;5.50;;;;;;4998162;28;20587;-85
2023/06/13 12:08:03;;;;;;;4.00;2.60;;;23.60;2.70;;;;;;4998686;28;20200;-86
2023/06/13 12:10:30;;;;;;;3.50;3.08;;;23.70;2.40;;;;;;4998181;28;20211;-85
2023/06/13 12:12:59;;;;;;;5.25;4.00;;;23.60;2.90;;;;;;4997916;28;20223;-86
2023/06/13 12:15:26;;;;;;;4.43;3.10;;;23.50;4.10;;;;;;5002167;28;20206;-85
2023/06/13 12:18:00;;;;;;;3.90;2.90;;;23.80;3.00;;;;;;4991503;28;20211;-85
2023/06/13 12:20:29;;;;;;;6.53;2.80;;;23.80;1.50;;;;;;4991639;28;20216;-87
2023/06/13 12:22:57;;;;;;;3.70;3.10;;;23.80;2.50;;;;;;4994072;28;20227;-85
2023/06/13 12:25:26;;;;;;;3.33;3.00;;;23.80;3.40;;;;;;4993079;28;20212;-87
2023/06/13 12:27:53;;;;;;;4.47;2.90;;;24.00;1.30;;;;;;4996995;28;20199;-82
2023/06/13 12:30:22;;;;;;;7.03;2.80;;;24.20;1.70;;;;;;4995944;28;20673;-83
2023/06/13 12:32:56;;;;;;;3.40;3.05;;;24.30;1.00;;;;;;4978001;28;20692;-83
2023/06/13 12:35:26;;;;;;;4.30;3.05;;;24.20;1.10;;;;;;4996868;28;20703;-87
2023/06/13 12:38:04;;;;;;;4.30;2.95;;;24.00;2.10;;;;;;4990289;28;20254;-86
2023/06/13 12:41:25;;;;;;;7.60;2.78;;;24.00;2.20;;;;;;4987544;28;20222;-89
2023/06/13 12:43:54;;;;;;;3.97;3.05;;;24.00;2.40;;;;;;5005607;28;20196;-87
2023/06/13 12:47:09;;;;;;;5.80;2.58;;;24.20;1.80;;;;;;4994121;28;20210;-88
2023/06/13 12:49:39;;;;;;;7.55;2.97;;;24.20;2.80;;;;;;4995058;28;20208;-88
2023/06/13 12:52:19;;;;;;;3.13;2.47;;;24.40;2.70;;;;;;5006689;28;20365;-87
2023/06/13 14:19:25;;;;;;;4.57;3.00;;;23.50;1.00;;;;;;5028650;28;20233;-88
2023/06/13 14:39:05;;;;;;;4.18;2.92;;;23.20;1.00;;;;;;5007248;28;20266;-89
2023/06/13 15:38:48;;;;;;;9.63;3.33;;;23.00;2.40;;;;;;4976428;28;20183;-89
2023/06/13 15:43:56;;;;;;;3.03;2.72;;;23.00;3.30;;;;;;4953355;29;20296;-87
2023/06/13 15:46:23;;;;;;;5.15;3.00;;;23.00;1.60;;;;;;4963632;28;20224;-86
2023/06/13 15:48:51;;;;;;;5.25;3.22;;;22.90;2.50;;;;;;4945612;28;20197;-85
2023/06/13 15:51:18;;;;;;;3.90;3.20;;;22.80;2.30;;;;;;5036200;28;20201;-88
2023/06/13 15:53:45;;;;;;;4.53;3.08;;;22.90;2.10;;;;;;5020841;28;20217;-88
2023/06/13 15:56:12;;;;;;;5.07;3.22;;;22.90;1.30;;;;;;5029882;28;20199;-88
2023/06/13 15:58:40;;;;;;;4.68;3.20;;;22.80;1.70;;;;;;5033165;28;20209;-86
2023/06/13 16:01:08;;;;;;;3.47;3.00;;;22.90;1.60;;;;;;5017481;28;20309;-92
2023/06/13 16:03:35;;;;;;;4.07;3.25;;;22.90;2.00;;;;;;5032604;28;20210;-87
2023/06/13 16:06:05;;;;;;;4.03;3.00;;;22.80;2.50;;;;;;5011685;28;20644;-83
2023/06/13 16:08:32;;;;;;;5.50;3.13;;;22.80;2.00;;;;;;5016995;28;20252;-85
2023/06/13 16:10:59;;;;;;;4.53;3.20;;;22.80;1.50;;;;;;5011147;28;20670;-88
2023/06/13 16:13:27;;;;;;;6.30;3.17;;;22.80;1.00;;;;;;5031323;28;20210;-84
2023/06/13 16:15:53;;;;;;;3.90;3.38;;;22.80;1.00;;;;;;5033079;28;20302;-87
2023/06/13 16:18:20;;;;;;;3.22;2.92;;;22.80;1.20;;;;;;5017532;28;20588;-86
2023/06/13 16:20:47;;;;;;;3.92;3.10;;;22.80;1.10;;;;;;5014957;28;20242;-90
2023/06/13 16:23:18;;;;;;;5.32;3.03;;;22.70;2.00;;;;;;5038398;28;20191;-87
2023/06/13 16:25:46;;;;;;;4.03;3.30;;;22.60;1.70;;;;;;5018982;28;20214;-85
2023/06/13 16:28:13;;;;;;;6.28;3.42;;;22.50;1.00;;;;;;5010017;28;20225;-85
2023/06/13 16:30:43;;;;;;;4.53;3.05;;;22.50;1.00;;;;;;4995096;28;20209;-86
2023/06/13 16:33:10;;;;;;;4.72;3.22;;;22.50;1.00;;;;;;5018421;28;20198;-86
2023/06/13 16:35:37;;;;;;;5.72;3.30;;;22.50;1.00;;;;;;5013936;28;20195;-84
2023/06/13 16:38:05;;;;;;;3.50;3.20;;;22.40;1.00;;;;;;4997078;28;20211;-89
2023/06/13 16:40:33;;;;;;;6.03;3.20;;;22.30;1.00;;;;;;5028399;28;20234;-89
2023/06/13 16:43:00;;;;;;;3.83;3.40;;;22.30;1.00;;;;;;5033782;28;20214;-87
2023/06/13 16:45:27;;;;;;;4.45;3.67;;;22.20;1.60;;;;;;5032615;28;20659;-87
2023/06/13 16:47:54;;;;;;;6.32;3.53;;;22.20;1.60;;;;;;5016946;28;20562;-87
2023/06/13 16:50:21;;;;;;;5.30;3.25;;;22.10;2.00;;;;;;5028025;28;20203;-87
2023/06/13 16:52:50;;;;;;;4.78;3.00;;;22.00;2.00;;;;;;5033454;28;20286;-89
2023/06/13 16:55:17;;;;;;;6.45;3.30;;;22.00;1.60;;;;;;5011698;28;20198;-87
2023/06/13 16:57:46;;;;;;;3.10;2.85;;;21.90;2.60;;;;;;5033046;28;20203;-85
2023/06/13 17:00:14;;;;;;;5.15;3.00;;;22.00;1.70;;;;;;5034033;28;20218;-89
2023/06/13 17:02:41;;;;;;;4.72;3.00;;;22.00;1.40;;;;;;5031826;28;20210;-89
2023/06/13 17:05:09;;;;;;;4.03;3.20;;;22.00;1.10;;;;;;5025001;28;20203;-88
2023/06/13 17:07:37;;;;;;;4.05;3.15;;;21.90;1.40;;;;;;5033188;28;20252;-88
2023/06/13 17:10:05;;;;;;;6.90;3.40;;;21.80;2.50;;;;;;4998331;28;20195;-86
2023/06/13 17:12:32;;;;;;;3.58;3.20;;;21.80;2.50;;;;;;5031773;28;20397;-87
2023/06/13 17:15:00;;;;;;;6.30;3.47;;;21.80;1.70;;;;;;5011965;28;20202;-87
2023/06/13 17:17:27;;;;;;;3.45;3.08;;;21.70;2.50;;;;;;5031419;28;20237;-90
2023/06/13 17:19:58;;;;;;;4.43;3.03;;;21.70;1.60;;;;;;5017255;28;20218;-86
2023/06/13 17:22:26;;;;;;;4.72;2.90;;;21.70;2.20;;;;;;5019926;28;20205;-85
2023/06/13 17:24:53;;;;;;;8.63;3.25;;;21.70;2.40;;;;;;5017535;28;20210;-87
2023/06/13 17:27:19;;;;;;;3.85;3.05;;;21.60;2.40;;;;;;5014336;28;20207;-84
2023/06/13 17:29:46;;;;;;;5.80;3.28;;;21.60;3.00;;;;;;5033148;28;20871;-87
2023/06/13 17:32:15;;;;;;;4.60;3.00;;;21.50;3.50;;;;;;5035772;28;20289;-88
2023/06/13 17:34:43;;;;;;;5.70;2.90;;;21.40;3.20;;;;;;5038014;28;20313;-86
2023/06/13 17:37:10;;;;;;;3.55;3.25;;;21.40;3.10;;;;;;5013856;28;20203;-87
2023/06/13 17:39:37;;;;;;;4.82;4.28;;;21.30;3.20;;;;;;5038156;28;20658;-87
2023/06/13 17:42:56;;;;;;;4.22;3.13;;;21.30;3.90;;;;;;5014206;28;20250;-87
2023/06/13 17:45:24;;;;;;;4.50;3.22;;;21.30;3.50;;;;;;5033348;28;20206;-85
2023/06/13 17:47:53;;;;;;;8.23;3.20;;;21.30;3.10;;;;;;5037805;28;20203;-87
2023/06/13 17:50:21;;;;;;;4.60;2.90;;;21.30;3.10;;;;;;5037681;28;20199;-87
2023/06/13 17:52:48;;;;;;;3.50;3.00;;;21.20;3.70;;;;;;5037809;28;20225;-89
2023/06/13 17:55:16;;;;;;;4.40;2.80;;;21.10;4.30;;;;;;5023096;28;20563;-89
2023/06/13 17:57:45;;;;;;;6.75;2.90;;;21.00;4.90;;;;;;5019664;28;20199;-87
2023/06/13 18:00:13;;;;;;;3.42;2.78;;;20.90;4.80;;;;;;5020059;28;20253;-86
2023/06/13 18:02:41;;;;;;;3.45;3.00;;;20.90;4.10;;;;;;5018032;28;20652;-86
2023/06/13 18:05:11;;;;;;;5.60;4.82;;;20.80;4.00;;;;;;4999853;28;20235;-86
2023/06/13 18:15:00;;;;;;;5.80;3.13;;;20.60;5.10;;;;;;5043880;28;20183;-88
2023/06/13 18:17:53;;;;;;;3.47;3.17;;;20.60;4.80;;;;;;5015469;28;20218;-89
2023/06/13 18:23:03;;;;;;;4.32;3.20;;;20.50;5.30;;;;;;5032268;28;20198;-88
2023/06/13 18:25:30;;;;;;;4.97;2.90;;;20.40;5.60;;;;;;5024558;28;20206;-85
2023/06/13 18:27:57;;;;;;;5.40;3.20;;;20.40;5.60;;;;;;5026692;28;20565;-91
2023/06/13 18:30:24;;;;;;;5.20;3.22;;;20.40;5.20;;;;;;5002693;28;20203;-87
2023/06/13 18:32:51;;;;;;;4.63;3.40;;;20.40;5.30;;;;;;5018135;28;20235;-86
2023/06/13 18:35:21;;;;;;;6.85;3.80;;;20.30;5.50;;;;;;5000104;28;20309;-92
2023/06/13 18:37:48;;;;;;;6.00;2.90;;;20.30;5.10;;;;;;5030453;28;20241;-84
2023/06/13 18:40:16;;;;;;;3.70;3.30;;;20.20;6.10;;;;;;5028650;28;20226;-87
2023/06/13 18:42:43;;;;;;;4.43;3.03;;;20.00;5.90;;;;;;5028762;28;20202;-84
2023/06/13 18:45:10;;;;;;;5.78;3.03;;;20.00;6.20;;;;;;5032241;28;20560;-85
2023/06/13 18:47:37;;;;;;;3.78;3.03;;;20.00;6.00;;;;;;5019379;28;20203;-89
2023/06/13 18:50:08;;;;;;;4.00;2.92;;;19.90;6.10;;;;;;5020971;28;20194;-88
2023/06/13 18:52:37;;;;;;;7.40;3.08;;;19.80;6.60;;;;;;5034440;28;20202;-90
2023/06/13 18:55:05;;;;;;;6.65;2.92;;;19.70;6.60;;;;;;5033128;28;20206;-87
2023/06/13 18:57:32;;;;;;;7.90;3.47;;;19.60;7.60;;;;;;5028369;28;20202;-89
2023/06/13 18:59:59;;;;;;;7.63;3.85;;;19.50;7.20;;;;;;5016854;28;20721;-88
2023/06/13 19:02:26;;;;;;;4.68;3.13;;;19.40;7.80;;;;;;5029773;28;20684;-85
2023/06/13 19:04:54;;;;;;;5.80;3.13;;;19.30;7.60;;;;;;5029497;28;20433;-88
2023/06/13 19:07:21;;;;;;;5.95;3.72;;;19.20;7.80;;;;;;5027838;28;20293;-89
2023/06/13 19:09:53;;;;;;;8.52;4.95;;;19.10;8.00;;;;;;5012797;28;20203;-87
2023/06/13 19:15:01;;;;;;;7.38;5.80;;;18.90;9.10;;;;;;5006297;28;20212;-89
2023/06/13 19:17:28;;;;;;;11.00;8.80;;;18.90;10.20;;;;;;5035979;28;20230;-90
2023/06/13 19:19:56;;;;;;;3.80;3.30;;;18.80;10.20;;;;;;4997938;28;20252;-85
2023/06/13 19:22:23;;;;;;;3.90;3.42;;;18.70;10.20;;;;;;5033683;28;20298;-89
2023/06/13 19:27:32;;;;;;;9.13;7.28;;;18.50;10.00;;;;;;5021440;28;20616;-88
2023/06/13 19:30:01;;;;;;;5.57;3.10;;;18.40;9.90;;;;;;5016587;28;20710;-88
2023/06/13 19:32:28;;;;;;;6.38;4.80;;;18.20;9.80;;;;;;5019985;28;20211;-90
2023/06/13 19:34:55;;;;;;;7.57;3.78;;;18.20;11.00;;;;;;5033444;28;20195;-89
2023/06/13 19:37:37;;;;;;;7.57;4.45;;;18.10;11.20;;;;;;5032233;28;20202;-90
2023/06/13 19:42:52;;;;;;;4.90;3.67;;;17.90;11.20;;;;;;5032581;28;20206;-87
2023/06/13 19:45:19;;;;;;;9.23;5.20;;;17.80;11.20;;;;;;5038764;28;20217;-89
2023/06/13 19:54:39;;;;;;;6.00;3.67;;;17.60;12.40;;;;;;5040143;28;20179;-88
2023/06/13 20:07:53;;;;;;;6.22;5.15;;;17.20;13.40;;;;;;5037054;28;20554;-88
2023/06/13 20:10:20;;;;;;;4.65;3.70;;;17.10;13.80;;;;;;5034252;28;20655;-85
2023/06/13 20:12:49;;;;;;;9.30;6.72;;;17.10;14.20;;;;;;5018369;28;20195;-88
2023/06/13 20:15:16;;;;;;;6.60;4.55;;;17.10;14.90;;;;;;5034159;28;20203;-89
2023/06/13 20:22:46;;;;;;;5.82;4.28;;;17.00;14.60;;;;;;5059629;28;20214;-90
2023/06/13 21:40:22;;;;;;;4.25;3.83;;;15.40;20.90;;;;;;5032705;28;20184;-90
